createdAt,value
2024-04-12T00:02:04.943Z,100406.62
2024-04-12T00:04:35.767Z,100407.55
2024-04-12T00:07:14.137Z,100406.73
2024-04-12T00:09:43.280Z,100406.68
2024-04-12T00:12:12.450Z,100406.52
2024-04-12T00:14:44.537Z,100403.80
2024-04-12T00:17:16.376Z,100400.75
2024-04-12T00:19:46.215Z,100398.73
2024-04-12T00:22:14.929Z,100395.23
2024-04-12T00:24:42.948Z,100396.22
2024-04-12T00:27:15.805Z,100398.73
2024-04-12T00:29:46.639Z,100398.67
2024-04-12T00:32:16.144Z,100401.35
2024-04-12T00:34:52.290Z,100402.17
2024-04-12T00:37:23.449Z,100402.11
2024-04-12T00:39:54.620Z,100406.05
2024-04-12T00:42:32.080Z,100401.07
2024-04-12T00:45:00.091Z,100398.35
2024-04-12T00:47:32.540Z,100397.69
2024-04-12T00:50:02.950Z,100396.89
2024-04-12T00:52:34.089Z,100397.64
2024-04-12T00:55:10.314Z,100398.06
2024-04-12T00:57:40.574Z,100398.45
2024-04-12T01:00:11.831Z,100398.11
2024-04-12T01:02:42.289Z,100399.95
2024-04-12T01:05:20.285Z,100398.39
2024-04-12T01:07:56.311Z,100400.94
2024-04-12T01:10:25.541Z,100400.17
2024-04-12T01:12:55.749Z,100398.27
2024-04-12T01:15:29.761Z,100397.82
2024-04-12T01:18:05.177Z,100397.65
2024-04-12T01:20:35.817Z,100398.29
2024-04-12T01:23:06.879Z,100399.61
2024-04-12T01:25:35.737Z,100394.41
2024-04-12T01:28:09.800Z,100395.13
2024-04-12T01:30:40.275Z,100396.64
2024-04-12T01:33:09.275Z,100395.60
2024-04-12T01:35:37.252Z,100403.23
2024-04-12T01:38:20.926Z,100403.43
2024-04-12T01:40:57.384Z,100402.11
2024-04-12T01:43:28.909Z,100403.79
2024-04-12T01:45:56.999Z,100406.05
2024-04-12T01:48:25.716Z,100409.32
2024-04-12T01:50:53.880Z,100410.04
2024-04-12T01:53:23.550Z,100409.55
2024-04-12T01:55:51.714Z,100406.23
2024-04-12T01:58:29.574Z,100403.06
2024-04-12T02:01:02.991Z,100404.45
2024-04-12T02:03:31.824Z,100405.06
2024-04-12T02:06:05.884Z,100403.84
2024-04-12T02:08:34.156Z,100405.27
2024-04-12T02:11:06.593Z,100408.64
2024-04-12T02:13:44.956Z,100404.05
2024-04-12T02:16:12.996Z,100404.26
2024-04-12T02:18:43.118Z,100404.30
2024-04-12T02:21:19.954Z,100409.04
2024-04-12T02:23:53.508Z,100411.16
2024-04-12T02:26:23.699Z,100412.92
2024-04-12T02:28:52.688Z,100412.55
2024-04-12T02:31:21.846Z,100412.64
2024-04-12T02:33:54.681Z,100412.67
2024-04-12T02:36:22.877Z,100417.35
2024-04-12T02:38:51.290Z,100414.17
2024-04-12T02:41:22.694Z,100414.50
2024-04-12T02:43:56.595Z,100414.48
2024-04-12T02:46:24.924Z,100416.65
2024-04-12T02:48:54.801Z,100417.02
2024-04-12T02:51:22.707Z,100414.12
2024-04-12T02:53:51.452Z,100413.89
2024-04-12T02:56:24.521Z,100416.05
2024-04-12T02:58:55.356Z,100415.99
2024-04-12T03:01:26.008Z,100415.43
2024-04-12T03:03:59.107Z,100415.15
2024-04-12T03:06:33.104Z,100413.34
2024-04-12T03:09:02.682Z,100417.89
2024-04-12T03:11:35.006Z,100419.45
2024-04-12T03:14:09.971Z,100422.41
2024-04-12T03:16:45.492Z,100423.61
2024-04-12T03:19:22.647Z,100425.14
2024-04-12T03:21:51.413Z,100421.66
2024-04-12T03:24:19.728Z,100424.30
2024-04-12T03:26:48.354Z,100424.84
2024-04-12T03:29:19.366Z,100430.89
2024-04-12T03:31:48.505Z,100431.20
2024-04-12T03:34:16.734Z,100432.05
2024-04-12T03:36:45.960Z,100432.82
2024-04-12T03:39:22.132Z,100435.54
2024-04-12T03:41:57.448Z,100438.39
2024-04-12T03:44:32.512Z,100437.79
2024-04-12T03:47:13.844Z,100436.79
2024-04-12T03:49:43.338Z,100438.79
2024-04-12T03:52:20.031Z,100445.30
2024-04-12T03:54:48.827Z,100449.72
2024-04-12T03:57:17.831Z,100453.55
2024-04-12T03:59:46.989Z,100452.89
2024-04-12T04:02:18.825Z,100454.29
2024-04-12T04:04:46.732Z,100454.64
2024-04-12T04:07:20.448Z,100456.70
2024-04-12T04:09:48.761Z,100455.42
2024-04-12T04:12:17.458Z,100460.05
2024-04-12T04:14:49.228Z,100462.35
2024-04-12T04:17:18.958Z,100464.84
2024-04-12T04:19:52.127Z,100467.74
2024-04-12T04:22:31.669Z,100467.71
2024-04-12T04:25:00.304Z,100472.08
2024-04-12T04:27:28.292Z,100469.27
2024-04-12T04:29:57.998Z,100468.69
2024-04-12T04:32:26.800Z,100471.22
2024-04-12T04:34:55.540Z,100476.63
2024-04-12T04:37:27.921Z,100476.72
2024-04-12T04:40:10.011Z,100479.83
2024-04-12T04:42:38.546Z,100478.60
2024-04-12T04:45:10.424Z,100483.98
2024-04-12T04:47:39.853Z,100484.14
2024-04-12T04:50:11.012Z,100485.45
2024-04-12T04:52:38.816Z,100488.54
2024-04-12T04:55:08.459Z,100486.02
2024-04-12T04:57:39.548Z,100487.91
2024-04-12T05:00:08.901Z,100489.80
2024-04-12T05:02:39.786Z,100487.86
2024-04-12T05:05:07.955Z,100486.16
2024-04-12T05:07:36.458Z,100486.52
2024-04-12T05:10:14.929Z,100492.50
2024-04-12T05:12:45.434Z,100494.73
2024-04-12T05:15:49.634Z,100495.80
2024-04-12T05:18:21.711Z,100498.83
2024-04-12T05:20:50.016Z,100498.25
2024-04-12T05:23:19.956Z,100495.09
2024-04-12T05:25:51.152Z,100495.17
2024-04-12T05:28:21.722Z,100490.52
2024-04-12T05:30:50.464Z,100485.26
2024-04-12T05:33:20.197Z,100488.71
2024-04-12T05:35:51.652Z,100494.94
2024-04-12T05:38:24.477Z,100500.02
2024-04-12T05:40:55.698Z,100501.41
2024-04-12T05:43:23.994Z,100500.28
2024-04-12T05:45:54.232Z,100496.22
2024-04-12T05:48:23.564Z,100496.32
2024-04-12T05:50:54.524Z,100497.03
2024-04-12T05:53:30.741Z,100493.66
2024-04-12T05:56:20.192Z,100499.68
2024-04-12T05:58:51.728Z,100508.90
2024-04-12T06:01:19.480Z,100509.35
2024-04-12T06:03:55.292Z,100512.69
2024-04-12T06:06:32.224Z,100515.86
2024-04-12T06:09:03.532Z,100519.75
2024-04-12T06:11:32.835Z,100519.65
2024-04-12T06:14:03.501Z,100519.48
2024-04-12T06:16:34.325Z,100516.66
2024-04-12T06:19:03.089Z,100516.95
2024-04-12T06:21:31.719Z,100519.94
2024-04-12T06:24:00.218Z,100513.77
2024-04-12T06:26:29.849Z,100512.89
2024-04-12T06:29:03.872Z,100509.33
2024-04-12T06:31:34.818Z,100509.45
2024-04-12T06:34:06.236Z,100508.11
2024-04-12T06:36:34.640Z,100509.31
2024-04-12T06:39:05.332Z,100508.46
2024-04-12T06:41:34.176Z,100510.05
2024-04-12T06:44:01.017Z,100510.09
2024-04-12T06:46:28.726Z,100508.95
2024-04-12T06:49:08.700Z,100513.63
2024-04-12T06:51:44.497Z,100510.27
2024-04-12T06:54:12.863Z,100513.45
2024-04-12T06:56:41.259Z,100516.94
2024-04-12T06:59:08.805Z,100511.91
2024-04-12T07:01:37.122Z,100510.48
2024-04-12T07:04:06.156Z,100506.59
2024-04-12T07:06:33.496Z,100501.67
2024-04-12T07:09:09.257Z,100500.52
2024-04-12T07:11:40.232Z,100505.14
2024-04-12T07:14:07.650Z,100506.42
2024-04-12T07:16:36.827Z,100502.75
2024-04-12T07:19:09.240Z,100506.55
2024-04-12T07:21:37.296Z,100507.27
2024-04-12T07:24:04.294Z,100506.73
2024-04-12T07:26:32.023Z,100511.16
2024-04-12T07:29:02.742Z,100505.88
2024-04-12T07:31:34.933Z,100502.19
2024-04-12T07:34:04.146Z,100502.89
2024-04-12T07:36:32.926Z,100504.98
2024-04-12T07:39:21.494Z,100499.02
2024-04-12T07:41:50.737Z,100499.88
2024-04-12T07:44:18.489Z,100496.53
2024-04-12T07:46:52.404Z,100491.23
2024-04-12T07:49:19.698Z,100489.39
2024-04-12T07:51:47.717Z,100491.10
2024-04-12T07:54:16.388Z,100491.02
2024-04-12T07:57:03.345Z,100487.92
2024-04-12T07:59:33.880Z,100487.89
2024-04-12T08:02:08.244Z,100488.70
2024-04-12T08:04:46.462Z,100485.98
2024-04-12T08:07:18.634Z,100485.11
2024-04-12T08:09:53.337Z,100482.00
2024-04-12T08:12:27.250Z,100482.91
2024-04-12T08:14:56.415Z,100485.10
2024-04-12T08:17:25.852Z,100482.20
2024-04-12T08:19:56.207Z,100478.90
2024-04-12T08:22:26.377Z,100479.21
2024-04-12T08:24:54.677Z,100472.71
2024-04-12T08:27:26.905Z,100470.82
2024-04-12T08:29:56.929Z,100468.05
2024-04-12T08:32:34.341Z,100465.81
2024-04-12T08:35:10.918Z,100468.48
2024-04-12T08:37:38.229Z,100466.17
2024-04-12T08:40:30.662Z,100467.67
2024-04-12T08:43:09.667Z,100465.17
2024-04-12T08:45:43.593Z,100461.50
2024-04-12T08:48:12.768Z,100458.75
2024-04-12T08:50:55.551Z,100463.69
2024-04-12T08:53:27.049Z,100456.29
2024-04-12T08:55:56.132Z,100454.60
2024-04-12T08:58:25.464Z,100455.59
2024-04-12T09:00:55.883Z,100455.46
2024-04-12T09:03:27.498Z,100454.38
2024-04-12T09:05:57.834Z,100452.91
2024-04-12T09:08:31.350Z,100449.85
2024-04-12T09:11:06.628Z,100444.04
2024-04-12T09:13:35.928Z,100441.05
2024-04-12T09:16:07.450Z,100437.00
2024-04-12T09:18:52.099Z,100437.23
2024-04-12T09:21:38.247Z,100435.71
2024-04-12T09:24:10.610Z,100435.99
2024-04-12T09:26:55.640Z,100436.36
2024-04-12T09:29:29.592Z,100431.52
2024-04-12T09:32:16.702Z,100425.14
2024-04-12T09:34:56.080Z,100423.13
2024-04-12T09:37:27.868Z,100419.73
2024-04-12T09:40:05.170Z,100423.16
2024-04-12T09:43:06.803Z,100423.48
2024-04-12T09:46:06.648Z,100419.67
2024-04-12T09:48:54.898Z,100415.81
2024-04-12T09:51:43.578Z,100412.29
2024-04-12T09:54:29.946Z,100412.72
2024-04-12T09:57:22.295Z,100409.88
2024-04-12T10:00:19.712Z,100409.48
2024-04-12T10:03:09.200Z,100410.27
2024-04-12T10:05:58.383Z,100411.14
2024-04-12T10:08:45.696Z,100412.03
2024-04-12T10:11:32.568Z,100403.88
2024-04-12T10:14:19.466Z,100391.92
2024-04-12T10:17:06.277Z,100389.10
2024-04-12T10:19:52.451Z,100383.27
2024-04-12T10:22:42.821Z,100383.34
2024-04-12T10:25:31.606Z,100383.04
2024-04-12T10:28:22.011Z,100383.11
2024-04-12T10:31:08.487Z,100381.80
2024-04-12T10:34:02.625Z,100382.99
2024-04-12T10:36:48.788Z,100379.57
2024-04-12T10:39:17.934Z,100376.90
2024-04-12T10:41:46.069Z,100374.86
2024-04-12T10:44:13.681Z,100371.88
2024-04-12T10:46:42.032Z,100366.64
2024-04-12T10:49:10.135Z,100359.63
2024-04-12T10:51:40.251Z,100357.48
2024-04-12T10:54:14.738Z,100357.19
2024-04-12T10:56:46.558Z,100352.16
2024-04-12T10:59:27.389Z,100351.48
2024-04-12T11:01:56.834Z,100344.04
2024-04-12T11:04:28.950Z,100335.05
2024-04-12T11:06:57.055Z,100332.38
2024-04-12T11:09:38.656Z,100332.21
2024-04-12T11:12:11.634Z,100330.78
2024-04-12T11:14:49.221Z,100326.58
2024-04-12T11:17:35.248Z,100324.77
2024-04-12T11:20:21.389Z,100324.40
2024-04-12T11:23:07.579Z,100320.51
2024-04-12T11:25:54.498Z,100313.40
2024-04-12T11:28:40.341Z,100311.98
2024-04-12T11:31:15.286Z,100308.17
2024-04-12T11:33:49.042Z,100307.08
2024-04-12T11:36:24.030Z,100303.50
2024-04-12T11:38:54.576Z,100301.39
2024-04-12T11:41:24.886Z,100301.70
2024-04-12T11:43:53.220Z,100295.21
2024-04-12T11:46:24.347Z,100291.41
2024-04-12T11:48:56.899Z,100286.41
2024-04-12T11:51:24.794Z,100286.37
2024-04-12T11:53:56.783Z,100287.52
2024-04-12T11:56:25.011Z,100283.81
2024-04-12T11:58:54.707Z,100280.92
2024-04-12T12:01:22.390Z,100275.66
2024-04-12T12:03:50.324Z,100272.17
2024-04-12T12:06:18.242Z,100273.41
2024-04-12T12:08:46.160Z,100273.23
2024-04-12T12:11:14.067Z,100271.29
2024-04-12T12:13:44.711Z,100267.00
2024-04-12T12:16:15.520Z,100260.80
2024-04-12T12:18:45.140Z,100254.90
2024-04-12T12:21:12.881Z,100252.48
2024-04-12T12:23:40.364Z,100250.58
2024-04-12T12:26:09.383Z,100244.16
2024-04-12T12:28:36.316Z,100236.23
2024-04-12T12:31:06.612Z,100231.52
2024-04-12T12:33:38.779Z,100226.25
2024-04-12T12:36:07.536Z,100229.05
2024-04-12T12:38:37.164Z,100224.80
2024-04-12T12:41:05.002Z,100225.52
2024-04-12T12:43:32.727Z,100221.50
2024-04-12T12:46:05.159Z,100215.60
2024-04-12T12:48:33.968Z,100215.19
2024-04-12T12:51:04.197Z,100210.05
2024-04-12T12:53:34.572Z,100207.06
2024-04-12T12:56:03.431Z,100207.23
2024-04-12T12:58:30.552Z,100204.54
2024-04-12T13:01:00.518Z,100195.71
2024-04-12T13:03:31.779Z,100193.88
2024-04-12T13:06:07.094Z,100189.33
2024-04-12T13:08:35.840Z,100188.29
2024-04-12T13:11:08.681Z,100184.22
2024-04-12T13:13:40.311Z,100181.60
2024-04-12T13:16:11.926Z,100179.80
2024-04-12T13:18:52.501Z,100177.38
2024-04-12T13:21:20.889Z,100172.95
2024-04-12T13:23:48.182Z,100169.25
2024-04-12T13:26:26.075Z,100165.41
2024-04-12T13:28:54.504Z,100162.02
2024-04-12T13:31:23.969Z,100160.73
2024-04-12T13:34:03.495Z,100159.47
2024-04-12T13:36:32.088Z,100151.27
2024-04-12T13:39:00.222Z,100151.69
2024-04-12T13:41:27.709Z,100152.83
2024-04-12T13:43:58.920Z,100152.34
2024-04-12T13:46:47.221Z,100150.64
2024-04-12T13:49:35.148Z,100143.61
2024-04-12T13:52:02.870Z,100143.52
2024-04-12T13:54:31.640Z,100139.27
2024-04-12T13:57:03.074Z,100136.48
2024-04-12T13:59:30.834Z,100136.03
2024-04-12T14:01:59.563Z,100131.52
2024-04-12T14:04:29.375Z,100127.05
2024-04-12T14:06:57.006Z,100124.92
2024-04-12T14:09:25.651Z,100124.73
2024-04-12T14:11:54.204Z,100122.36
2024-04-12T14:14:21.924Z,100121.20
2024-04-12T14:16:52.349Z,100120.28
2024-04-12T14:19:21.097Z,100118.20
2024-04-12T14:21:51.682Z,100117.64
2024-04-12T14:24:39.107Z,100117.04
2024-04-12T14:27:07.223Z,100114.36
2024-04-12T14:29:37.508Z,100113.13
2024-04-12T14:32:10.288Z,100112.20
2024-04-12T14:34:37.675Z,100107.20
2024-04-12T14:37:06.401Z,100104.64
2024-04-12T14:39:35.272Z,100100.55
2024-04-12T14:42:02.963Z,100100.11
2024-04-12T14:44:39.322Z,100097.37
2024-04-12T14:47:16.223Z,100091.95
2024-04-12T14:49:43.233Z,100094.01
2024-04-12T14:52:13.973Z,100094.73
2024-04-12T14:54:40.860Z,100092.81
2024-04-12T14:57:08.710Z,100090.76
2024-04-12T14:59:37.195Z,100091.52
2024-04-12T15:02:07.724Z,100093.10
2024-04-12T15:04:53.637Z,100086.70
2024-04-12T15:07:39.251Z,100084.55
2024-04-12T15:10:26.288Z,100084.92
2024-04-12T15:13:12.731Z,100086.34
2024-04-12T15:15:59.597Z,100080.23
2024-04-12T15:18:45.744Z,100082.75
2024-04-12T15:21:31.832Z,100078.04
2024-04-12T15:24:18.065Z,100072.42
2024-04-12T15:27:05.085Z,100070.53
2024-04-12T15:29:50.862Z,100071.31
2024-04-12T15:32:37.404Z,100074.58
2024-04-12T15:35:25.489Z,100075.20
2024-04-12T15:38:12.382Z,100074.70
2024-04-12T15:40:58.361Z,100075.66
2024-04-12T15:43:44.270Z,100075.31
2024-04-12T15:46:30.893Z,100078.45
2024-04-12T15:49:00.347Z,100078.91
2024-04-12T15:51:28.835Z,100074.66
2024-04-12T15:54:01.745Z,100076.83
2024-04-12T15:56:30.189Z,100077.25
2024-04-12T15:59:17.273Z,100074.44
2024-04-12T16:02:03.567Z,100077.39
2024-04-12T16:04:49.339Z,100078.25
2024-04-12T16:07:35.953Z,100076.89
2024-04-12T16:10:22.391Z,100081.23
2024-04-12T16:12:50.432Z,100078.45
2024-04-12T16:15:17.719Z,100082.57
2024-04-12T16:17:45.489Z,100084.59
2024-04-12T16:20:14.531Z,100087.73
2024-04-12T16:22:42.088Z,100086.86
2024-04-12T16:25:10.424Z,100088.52
2024-04-12T16:27:38.134Z,100088.41
2024-04-12T16:30:11.166Z,100095.33
2024-04-12T16:32:38.307Z,100091.94
2024-04-12T16:35:08.185Z,100092.85
2024-04-12T16:37:35.868Z,100094.46
2024-04-12T16:40:04.310Z,100090.54
2024-04-12T16:42:31.915Z,100094.66
2024-04-12T16:45:01.893Z,100088.98
2024-04-12T16:47:29.427Z,100087.64
2024-04-12T16:49:58.810Z,100088.45
2024-04-12T16:52:27.526Z,100094.58
2024-04-12T16:54:54.955Z,100091.58
2024-04-12T16:57:23.572Z,100091.20
2024-04-12T16:59:53.671Z,100088.52
2024-04-12T17:02:22.999Z,100086.90
2024-04-12T17:04:53.737Z,100091.27
2024-04-12T17:07:21.414Z,100093.52
2024-04-12T17:09:50.138Z,100091.89
2024-04-12T17:12:20.733Z,100091.27
2024-04-12T17:14:49.296Z,100092.30
2024-04-12T17:17:17.813Z,100094.13
2024-04-12T17:19:45.685Z,100096.64
2024-04-12T17:22:14.716Z,100098.09
2024-04-12T17:24:47.152Z,100098.80
2024-04-12T17:27:14.331Z,100093.51
2024-04-12T17:29:46.224Z,100091.47
2024-04-12T17:32:14.859Z,100093.21
2024-04-12T17:34:44.385Z,100094.44
2024-04-12T17:37:11.533Z,100095.89
2024-04-12T17:39:40.698Z,100098.60
2024-04-12T17:42:08.844Z,100101.88
2024-04-12T17:44:40.558Z,100101.66
2024-04-12T17:47:08.779Z,100104.30
2024-04-12T17:49:36.492Z,100105.84
2024-04-12T17:52:06.025Z,100100.89
2024-04-12T17:54:33.477Z,100104.40
2024-04-12T17:57:01.761Z,100110.94
2024-04-12T17:59:31.936Z,100110.15
2024-04-12T18:01:59.298Z,100115.40
2024-04-12T18:04:28.776Z,100115.63
2024-04-12T18:06:57.778Z,100116.75
2024-04-12T18:09:28.330Z,100123.25
2024-04-12T18:12:01.046Z,100123.05
2024-04-12T18:14:31.282Z,100123.68
2024-04-12T18:16:59.209Z,100128.10
2024-04-12T18:19:27.229Z,100131.05
2024-04-12T18:21:59.128Z,100131.21
2024-04-12T18:24:28.309Z,100131.46
2024-04-12T18:26:55.566Z,100134.18
2024-04-12T18:29:24.156Z,100134.76
2024-04-12T18:31:58.188Z,100137.44
2024-04-12T18:34:27.257Z,100140.71
2024-04-12T18:37:14.269Z,100140.31
2024-04-12T18:40:01.793Z,100140.84
2024-04-12T18:42:48.366Z,100141.79
2024-04-12T18:45:16.218Z,100145.66
2024-04-12T18:47:46.440Z,100151.17
2024-04-12T18:50:15.698Z,100153.84
2024-04-12T18:52:43.778Z,100154.23
2024-04-12T18:55:11.990Z,100161.73
2024-04-12T18:57:39.814Z,100159.73
2024-04-12T19:00:08.751Z,100158.98
2024-04-12T19:02:37.828Z,100160.81
2024-04-12T19:05:07.548Z,100162.66
2024-04-12T19:07:35.624Z,100162.37
2024-04-12T19:10:05.113Z,100167.15
2024-04-12T19:12:35.214Z,100163.85
2024-04-12T19:15:04.299Z,100163.50
2024-04-12T19:17:32.387Z,100164.82
2024-04-12T19:20:00.506Z,100162.27
2024-04-12T19:22:28.444Z,100161.10
2024-04-12T19:24:56.228Z,100158.67
2024-04-12T19:27:25.442Z,100156.19
2024-04-12T19:29:53.085Z,100154.10
2024-04-12T19:32:23.742Z,100157.38
2024-04-12T19:34:52.946Z,100153.38
2024-04-12T19:37:20.945Z,100151.48
2024-04-12T19:39:52.644Z,100149.90
2024-04-12T19:42:21.513Z,100149.19
2024-04-12T19:44:50.559Z,100147.66
2024-04-12T19:47:19.102Z,100145.50
2024-04-12T19:49:47.024Z,100143.96
2024-04-12T19:52:14.349Z,100146.63
2024-04-12T19:54:43.271Z,100145.46
2024-04-12T19:57:11.120Z,100145.73
2024-04-12T19:59:40.031Z,100145.06
2024-04-12T20:02:07.941Z,100146.27
2024-04-12T20:04:35.791Z,100142.12
2024-04-12T20:07:03.385Z,100144.97
2024-04-12T20:09:33.046Z,100143.09
2024-04-12T20:12:01.544Z,100147.29
2024-04-12T20:14:30.049Z,100149.86
2024-04-12T20:16:58.137Z,100149.65
2024-04-12T20:19:25.830Z,100143.60
2024-04-12T20:21:54.744Z,100140.11
2024-04-12T20:24:28.513Z,100142.23
2024-04-12T20:26:56.364Z,100144.06
2024-04-12T20:29:27.397Z,100144.58
2024-04-12T20:32:18.506Z,100144.94
2024-04-12T20:34:56.937Z,100149.02
2024-04-12T20:37:24.475Z,100152.71
2024-04-12T20:39:53.978Z,100152.14
2024-04-12T20:42:22.011Z,100159.94
2024-04-12T20:44:50.945Z,100158.11
2024-04-12T20:47:19.651Z,100157.69
2024-04-12T20:49:48.441Z,100153.20
2024-04-12T20:52:17.447Z,100157.08
2024-04-12T20:54:44.733Z,100155.52
2024-04-12T20:57:18.082Z,100151.84
2024-04-12T20:59:51.191Z,100153.06
2024-04-12T21:02:19.225Z,100157.08
2024-04-12T21:04:51.660Z,100157.77
2024-04-12T21:07:19.104Z,100156.59
2024-04-12T21:09:46.912Z,100152.77
2024-04-12T21:12:14.969Z,100151.38
2024-04-12T21:14:43.501Z,100148.88
2024-04-12T21:17:15.537Z,100148.14
2024-04-12T21:19:43.545Z,100149.42
2024-04-12T21:22:12.746Z,100147.86
2024-04-12T21:24:41.876Z,100146.19
2024-04-12T21:27:10.032Z,100150.23
2024-04-12T21:29:40.974Z,100148.88
2024-04-12T21:32:12.717Z,100147.15
2024-04-12T21:34:42.000Z,100150.75
2024-04-12T21:37:10.033Z,100150.32
2024-04-12T21:39:38.504Z,100153.38
2024-04-12T21:42:06.675Z,100156.07
2024-04-12T21:44:37.897Z,100160.05
2024-04-12T21:47:08.243Z,100161.98
2024-04-12T21:49:39.034Z,100158.94
2024-04-12T21:52:09.706Z,100156.22
2024-04-12T21:54:43.184Z,100157.95
2024-04-12T21:57:10.714Z,100155.59
2024-04-12T21:59:38.851Z,100151.61
2024-04-12T22:02:07.988Z,100151.08
2024-04-12T22:04:42.818Z,100146.06
2024-04-12T22:07:11.253Z,100144.72
2024-04-12T22:09:42.766Z,100144.52
2024-04-12T22:12:13.557Z,100144.02
2024-04-12T22:14:45.668Z,100144.65
2024-04-12T22:17:14.951Z,100143.65
2024-04-12T22:19:48.454Z,100148.80
2024-04-12T22:22:17.695Z,100149.84
2024-04-12T22:24:45.672Z,100154.35
2024-04-12T22:27:15.227Z,100157.09
2024-04-12T22:29:53.584Z,100154.42
2024-04-12T22:32:25.307Z,100152.05
2024-04-12T22:34:55.727Z,100149.98
2024-04-12T22:37:35.914Z,100144.79
2024-04-12T22:40:04.558Z,100143.66
2024-04-12T22:42:35.284Z,100140.20
2024-04-12T22:45:03.519Z,100143.32
2024-04-12T22:47:38.226Z,100147.14
2024-04-12T22:50:10.295Z,100146.06
2024-04-12T22:52:45.458Z,100145.31
2024-04-12T22:55:14.086Z,100149.09
2024-04-12T22:57:48.603Z,100149.59
2024-04-12T23:00:22.160Z,100147.26
2024-04-12T23:02:54.025Z,100147.97
2024-04-12T23:05:22.536Z,100153.09
2024-04-12T23:07:50.373Z,100157.80
2024-04-12T23:10:19.205Z,100160.35
2024-04-12T23:12:47.159Z,100161.45
2024-04-12T23:15:15.309Z,100158.27
2024-04-12T23:17:43.091Z,100161.29
2024-04-12T23:20:12.354Z,100158.20
2024-04-12T23:22:41.255Z,100162.61
2024-04-12T23:25:11.478Z,100165.40
2024-04-12T23:27:40.058Z,100167.59
2024-04-12T23:30:09.375Z,100168.08
2024-04-12T23:32:36.995Z,100168.74
2024-04-12T23:35:05.270Z,100170.16
2024-04-12T23:37:35.060Z,100165.47
2024-04-12T23:40:06.510Z,100165.74
2024-04-12T23:42:37.127Z,100165.44
2024-04-12T23:45:05.906Z,100164.45
2024-04-12T23:47:33.593Z,100162.98
2024-04-12T23:50:01.158Z,100159.27
2024-04-12T23:52:29.539Z,100154.39
2024-04-12T23:54:57.763Z,100148.69
2024-04-12T23:57:26.688Z,100151.13
2024-04-12T23:59:54.357Z,100157.51
